Terminal Aerodrome Forecast
Issued by NWS Cleveland, OH

Home | Current Version | Previous Version | Graphics & Text | Print | Product List | Glossary Off
Versions: 1 2 3 4 5 6 7 8 9 10 11 12 13 14 15 16 17 18 19

000
FTUS41 KCLE 301800 AAA
TAFYNG
TAF AMD
KYNG 301842Z 3019/0118 22007KT P6SM SCT015 BKN040
      TEMPO 3019/3023 3SM -SHRA BR BKN015
     FM010400 35003KT 2SM BR BKN005
     FM010800 36002KT 3/4SM BR VV003
     FM011500 04004KT P6SM OVC010=

USA.gov is the U.S. government's official web portal to all federal, state and local government web resources and services.